sensor_id;sensor_type;location;lat;lon;timestamp;P1;durP1;ratioP1;P2;durP2;ratioP2
50379;SDS011;37474;59.468;18.040;2023-06-04T00:00:04;2.13;;;1.80;;
50379;SDS011;37474;59.468;18.040;2023-06-04T00:02:33;3.73;;;2.17;;
50379;SDS011;37474;59.468;18.040;2023-06-04T00:05:01;2.43;;;1.97;;
50379;SDS011;37474;59.468;18.040;2023-06-04T00:07:29;2.80;;;1.83;;
50379;SDS011;37474;59.468;18.040;2023-06-04T00:09:59;3.00;;;2.00;;
50379;SDS011;37474;59.468;18.040;2023-06-04T00:12:27;6.17;;;2.20;;
50379;SDS011;37474;59.468;18.040;2023-06-04T00:14:55;3.57;;;2.27;;
50379;SDS011;37474;59.468;18.040;2023-06-04T00:17:23;2.83;;;1.90;;
50379;SDS011;37474;59.468;18.040;2023-06-04T00:19:51;3.03;;;1.90;;
50379;SDS011;37474;59.468;18.040;2023-06-04T00:22:19;3.93;;;2.20;;
50379;SDS011;37474;59.468;18.040;2023-06-04T00:24:47;3.10;;;1.90;;
50379;SDS011;37474;59.468;18.040;2023-06-04T00:27:17;3.60;;;2.13;;
50379;SDS011;37474;59.468;18.040;2023-06-04T00:29:45;3.58;;;2.10;;
50379;SDS011;37474;59.468;18.040;2023-06-04T00:32:13;5.13;;;2.30;;
50379;SDS011;37474;59.468;18.040;2023-06-04T00:34:41;3.50;;;2.53;;
50379;SDS011;37474;59.468;18.040;2023-06-04T00:37:09;4.30;;;2.40;;
50379;SDS011;37474;59.468;18.040;2023-06-04T00:39:38;4.30;;;2.43;;
50379;SDS011;37474;59.468;18.040;2023-06-04T00:42:06;4.23;;;2.10;;
50379;SDS011;37474;59.468;18.040;2023-06-04T00:44:35;12.43;;;2.73;;
50379;SDS011;37474;59.468;18.040;2023-06-04T00:47:04;3.90;;;2.43;;
50379;SDS011;37474;59.468;18.040;2023-06-04T00:49:32;3.47;;;2.27;;
50379;SDS011;37474;59.468;18.040;2023-06-04T00:52:00;2.83;;;2.37;;
50379;SDS011;37474;59.468;18.040;2023-06-04T00:54:29;4.07;;;2.40;;
50379;SDS011;37474;59.468;18.040;2023-06-04T00:56:59;4.43;;;2.23;;
50379;SDS011;37474;59.468;18.040;2023-06-04T00:59:27;3.00;;;1.80;;
50379;SDS011;37474;59.468;18.040;2023-06-04T01:02:00;3.47;;;2.00;;
50379;SDS011;37474;59.468;18.040;2023-06-04T01:04:34;3.13;;;1.97;;
50379;SDS011;37474;59.468;18.040;2023-06-04T01:07:09;2.83;;;1.90;;
50379;SDS011;37474;59.468;18.040;2023-06-04T01:09:40;3.37;;;1.80;;
50379;SDS011;37474;59.468;18.040;2023-06-04T01:12:09;2.80;;;1.60;;
50379;SDS011;37474;59.468;18.040;2023-06-04T01:14:38;2.53;;;1.48;;
50379;SDS011;37474;59.468;18.040;2023-06-04T01:17:10;1.90;;;1.53;;
50379;SDS011;37474;59.468;18.040;2023-06-04T01:19:49;2.53;;;1.70;;
50379;SDS011;37474;59.468;18.040;2023-06-04T01:22:38;5.37;;;1.93;;
50379;SDS011;37474;59.468;18.040;2023-06-04T01:25:12;3.83;;;1.40;;
50379;SDS011;37474;59.468;18.040;2023-06-04T01:27:47;1.77;;;1.63;;
50379;SDS011;37474;59.468;18.040;2023-06-04T01:30:19;3.60;;;1.90;;
50379;SDS011;37474;59.468;18.040;2023-06-04T01:32:52;2.23;;;1.70;;
50379;SDS011;37474;59.468;18.040;2023-06-04T01:37:53;1.97;;;1.60;;
50379;SDS011;37474;59.468;18.040;2023-06-04T01:40:22;2.95;;;1.60;;
50379;SDS011;37474;59.468;18.040;2023-06-04T01:42:52;2.42;;;1.55;;
50379;SDS011;37474;59.468;18.040;2023-06-04T01:45:20;2.03;;;1.60;;
50379;SDS011;37474;59.468;18.040;2023-06-04T01:47:49;2.40;;;1.60;;
50379;SDS011;37474;59.468;18.040;2023-06-04T01:50:19;2.07;;;1.80;;
50379;SDS011;37474;59.468;18.040;2023-06-04T01:52:47;2.80;;;1.88;;
50379;SDS011;37474;59.468;18.040;2023-06-04T01:55:16;1.80;;;1.50;;
50379;SDS011;37474;59.468;18.040;2023-06-04T01:57:45;4.13;;;1.80;;
50379;SDS011;37474;59.468;18.040;2023-06-04T02:00:14;1.77;;;1.10;;
50379;SDS011;37474;59.468;18.040;2023-06-04T02:02:43;2.60;;;1.50;;
50379;SDS011;37474;59.468;18.040;2023-06-04T02:05:14;1.40;;;1.00;;
50379;SDS011;37474;59.468;18.040;2023-06-04T02:07:45;1.43;;;1.13;;
50379;SDS011;37474;59.468;18.040;2023-06-04T02:10:14;2.47;;;1.10;;
50379;SDS011;37474;59.468;18.040;2023-06-04T02:12:52;1.95;;;0.98;;
50379;SDS011;37474;59.468;18.040;2023-06-04T02:15:22;2.27;;;1.13;;
50379;SDS011;37474;59.468;18.040;2023-06-04T02:17:55;1.33;;;0.70;;
50379;SDS011;37474;59.468;18.040;2023-06-04T02:20:26;1.97;;;0.80;;
50379;SDS011;37474;59.468;18.040;2023-06-04T02:22:55;1.20;;;0.57;;
50379;SDS011;37474;59.468;18.040;2023-06-04T02:25:23;1.20;;;0.70;;
50379;SDS011;37474;59.468;18.040;2023-06-04T02:27:51;1.83;;;0.90;;
50379;SDS011;37474;59.468;18.040;2023-06-04T02:30:19;1.77;;;0.60;;
50379;SDS011;37474;59.468;18.040;2023-06-04T02:32:48;1.27;;;0.50;;
50379;SDS011;37474;59.468;18.040;2023-06-04T02:35:18;1.63;;;0.65;;
50379;SDS011;37474;59.468;18.040;2023-06-04T02:37:47;0.75;;;0.68;;
50379;SDS011;37474;59.468;18.040;2023-06-04T02:40:17;2.90;;;0.63;;
50379;SDS011;37474;59.468;18.040;2023-06-04T02:42:47;0.93;;;0.50;;
50379;SDS011;37474;59.468;18.040;2023-06-04T02:45:15;1.60;;;0.60;;
50379;SDS011;37474;59.468;18.040;2023-06-04T02:47:43;1.23;;;0.60;;
50379;SDS011;37474;59.468;18.040;2023-06-04T02:50:12;1.23;;;0.70;;
50379;SDS011;37474;59.468;18.040;2023-06-04T02:52:41;2.08;;;0.60;;
50379;SDS011;37474;59.468;18.040;2023-06-04T02:55:10;2.60;;;0.77;;
50379;SDS011;37474;59.468;18.040;2023-06-04T02:57:41;1.23;;;0.70;;
50379;SDS011;37474;59.468;18.040;2023-06-04T03:00:10;0.67;;;0.40;;
50379;SDS011;37474;59.468;18.040;2023-06-04T03:02:40;2.60;;;0.80;;
50379;SDS011;37474;59.468;18.040;2023-06-04T03:05:09;1.07;;;0.60;;
50379;SDS011;37474;59.468;18.040;2023-06-04T03:07:39;2.55;;;0.70;;
50379;SDS011;37474;59.468;18.040;2023-06-04T03:10:09;2.38;;;0.63;;
50379;SDS011;37474;59.468;18.040;2023-06-04T03:12:37;0.97;;;0.60;;
50379;SDS011;37474;59.468;18.040;2023-06-04T03:15:08;1.43;;;0.70;;
50379;SDS011;37474;59.468;18.040;2023-06-04T03:17:37;1.30;;;0.60;;
50379;SDS011;37474;59.468;18.040;2023-06-04T03:20:05;0.93;;;0.60;;
50379;SDS011;37474;59.468;18.040;2023-06-04T03:22:35;1.45;;;0.65;;
50379;SDS011;37474;59.468;18.040;2023-06-04T03:25:04;0.90;;;0.60;;
50379;SDS011;37474;59.468;18.040;2023-06-04T03:27:33;1.53;;;0.60;;
50379;SDS011;37474;59.468;18.040;2023-06-04T03:30:03;1.57;;;0.50;;
50379;SDS011;37474;59.468;18.040;2023-06-04T03:35:01;0.93;;;0.57;;
50379;SDS011;37474;59.468;18.040;2023-06-04T03:37:30;0.97;;;0.50;;
50379;SDS011;37474;59.468;18.040;2023-06-04T03:39:59;1.50;;;0.70;;
50379;SDS011;37474;59.468;18.040;2023-06-04T03:42:28;1.30;;;0.70;;
50379;SDS011;37474;59.468;18.040;2023-06-04T03:44:56;2.00;;;0.73;;
50379;SDS011;37474;59.468;18.040;2023-06-04T03:47:26;0.70;;;0.50;;
50379;SDS011;37474;59.468;18.040;2023-06-04T03:49:55;0.60;;;0.60;;
50379;SDS011;37474;59.468;18.040;2023-06-04T03:52:23;0.53;;;0.33;;
50379;SDS011;37474;59.468;18.040;2023-06-04T03:54:51;1.20;;;0.70;;
50379;SDS011;37474;59.468;18.040;2023-06-04T03:57:19;1.77;;;0.70;;
50379;SDS011;37474;59.468;18.040;2023-06-04T03:59:47;0.60;;;0.50;;
50379;SDS011;37474;59.468;18.040;2023-06-04T04:02:16;1.03;;;0.57;;
50379;SDS011;37474;59.468;18.040;2023-06-04T04:04:45;1.03;;;0.43;;
50379;SDS011;37474;59.468;18.040;2023-06-04T04:07:14;2.73;;;0.50;;
50379;SDS011;37474;59.468;18.040;2023-06-04T04:09:42;1.10;;;0.60;;
50379;SDS011;37474;59.468;18.040;2023-06-04T04:12:10;0.60;;;0.50;;
50379;SDS011;37474;59.468;18.040;2023-06-04T04:14:38;1.30;;;0.57;;
50379;SDS011;37474;59.468;18.040;2023-06-04T04:17:07;1.10;;;0.70;;
50379;SDS011;37474;59.468;18.040;2023-06-04T04:19:35;2.83;;;0.60;;
50379;SDS011;37474;59.468;18.040;2023-06-04T04:22:03;2.13;;;0.70;;
50379;SDS011;37474;59.468;18.040;2023-06-04T04:24:34;1.37;;;0.60;;
50379;SDS011;37474;59.468;18.040;2023-06-04T04:27:04;1.13;;;0.67;;
50379;SDS011;37474;59.468;18.040;2023-06-04T04:29:32;1.00;;;0.60;;
50379;SDS011;37474;59.468;18.040;2023-06-04T04:32:01;1.30;;;0.70;;
50379;SDS011;37474;59.468;18.040;2023-06-04T04:34:37;2.67;;;0.50;;
50379;SDS011;37474;59.468;18.040;2023-06-04T04:39:49;1.00;;;0.53;;
50379;SDS011;37474;59.468;18.040;2023-06-04T04:42:18;0.70;;;0.43;;
50379;SDS011;37474;59.468;18.040;2023-06-04T04:44:47;0.73;;;0.40;;
50379;SDS011;37474;59.468;18.040;2023-06-04T04:47:17;0.90;;;0.60;;
50379;SDS011;37474;59.468;18.040;2023-06-04T04:49:45;0.60;;;0.37;;
50379;SDS011;37474;59.468;18.040;2023-06-04T04:52:16;0.67;;;0.40;;
50379;SDS011;37474;59.468;18.040;2023-06-04T04:54:44;0.93;;;0.40;;
50379;SDS011;37474;59.468;18.040;2023-06-04T04:57:14;1.40;;;0.20;;
50379;SDS011;37474;59.468;18.040;2023-06-04T04:59:42;0.50;;;0.40;;
50379;SDS011;37474;59.468;18.040;2023-06-04T05:02:10;0.73;;;0.40;;
50379;SDS011;37474;59.468;18.040;2023-06-04T05:04:38;0.30;;;0.30;;
50379;SDS011;37474;59.468;18.040;2023-06-04T05:07:06;1.00;;;0.40;;
50379;SDS011;37474;59.468;18.040;2023-06-04T05:09:34;0.93;;;0.40;;
50379;SDS011;37474;59.468;18.040;2023-06-04T05:12:03;3.13;;;0.40;;
50379;SDS011;37474;59.468;18.040;2023-06-04T05:14:33;0.57;;;0.30;;
50379;SDS011;37474;59.468;18.040;2023-06-04T05:17:02;0.80;;;0.43;;
50379;SDS011;37474;59.468;18.040;2023-06-04T05:19:30;1.90;;;0.30;;
50379;SDS011;37474;59.468;18.040;2023-06-04T05:21:59;0.20;;;0.20;;
50379;SDS011;37474;59.468;18.040;2023-06-04T05:24:28;0.20;;;0.20;;
50379;SDS011;37474;59.468;18.040;2023-06-04T05:26:56;1.27;;;0.40;;
50379;SDS011;37474;59.468;18.040;2023-06-04T05:29:26;0.93;;;0.38;;
50379;SDS011;37474;59.468;18.040;2023-06-04T05:31:56;0.93;;;0.30;;
50379;SDS011;37474;59.468;18.040;2023-06-04T05:34:24;1.52;;;0.32;;
50379;SDS011;37474;59.468;18.040;2023-06-04T05:36:53;1.00;;;0.20;;
50379;SDS011;37474;59.468;18.040;2023-06-04T05:39:24;1.80;;;0.30;;
50379;SDS011;37474;59.468;18.040;2023-06-04T05:41:52;0.30;;;0.20;;
50379;SDS011;37474;59.468;18.040;2023-06-04T05:44:20;0.20;;;0.20;;
50379;SDS011;37474;59.468;18.040;2023-06-04T05:46:50;1.88;;;0.32;;
50379;SDS011;37474;59.468;18.040;2023-06-04T05:49:19;0.23;;;0.10;;
50379;SDS011;37474;59.468;18.040;2023-06-04T05:51:51;1.10;;;0.30;;
50379;SDS011;37474;59.468;18.040;2023-06-04T05:54:19;1.37;;;0.20;;
50379;SDS011;37474;59.468;18.040;2023-06-04T05:56:47;2.20;;;0.30;;
50379;SDS011;37474;59.468;18.040;2023-06-04T05:59:15;0.60;;;0.30;;
50379;SDS011;37474;59.468;18.040;2023-06-04T06:01:43;0.20;;;0.20;;
50379;SDS011;37474;59.468;18.040;2023-06-04T06:04:11;0.20;;;0.20;;
50379;SDS011;37474;59.468;18.040;2023-06-04T06:06:41;0.50;;;0.30;;
50379;SDS011;37474;59.468;18.040;2023-06-04T06:11:38;1.50;;;0.30;;
50379;SDS011;37474;59.468;18.040;2023-06-04T06:14:06;0.47;;;0.27;;
50379;SDS011;37474;59.468;18.040;2023-06-04T06:16:34;0.50;;;0.20;;
50379;SDS011;37474;59.468;18.040;2023-06-04T06:19:03;0.40;;;0.30;;
50379;SDS011;37474;59.468;18.040;2023-06-04T06:21:31;1.73;;;0.30;;
50379;SDS011;37474;59.468;18.040;2023-06-04T06:24:00;0.17;;;0.17;;
50379;SDS011;37474;59.468;18.040;2023-06-04T06:26:29;1.80;;;0.20;;
50379;SDS011;37474;59.468;18.040;2023-06-04T06:28:58;0.50;;;0.20;;
50379;SDS011;37474;59.468;18.040;2023-06-04T06:31:26;0.83;;;0.30;;
50379;SDS011;37474;59.468;18.040;2023-06-04T06:33:55;0.80;;;0.30;;
50379;SDS011;37474;59.468;18.040;2023-06-04T06:36:23;0.60;;;0.40;;
50379;SDS011;37474;59.468;18.040;2023-06-04T06:38:52;0.30;;;0.20;;
50379;SDS011;37474;59.468;18.040;2023-06-04T06:41:22;0.57;;;0.20;;
50379;SDS011;37474;59.468;18.040;2023-06-04T06:43:50;1.13;;;0.30;;
50379;SDS011;37474;59.468;18.040;2023-06-04T06:46:18;0.40;;;0.20;;
50379;SDS011;37474;59.468;18.040;2023-06-04T06:48:46;1.87;;;0.20;;
50379;SDS011;37474;59.468;18.040;2023-06-04T06:51:15;1.33;;;0.20;;
50379;SDS011;37474;59.468;18.040;2023-06-04T06:53:43;0.50;;;0.20;;
50379;SDS011;37474;59.468;18.040;2023-06-04T06:56:13;0.40;;;0.10;;
50379;SDS011;37474;59.468;18.040;2023-06-04T06:58:45;0.50;;;0.27;;
50379;SDS011;37474;59.468;18.040;2023-06-04T07:01:14;0.28;;;0.20;;
50379;SDS011;37474;59.468;18.040;2023-06-04T07:03:43;0.20;;;0.10;;
50379;SDS011;37474;59.468;18.040;2023-06-04T07:06:11;0.20;;;0.10;;
50379;SDS011;37474;59.468;18.040;2023-06-04T07:08:39;0.20;;;0.17;;
50379;SDS011;37474;59.468;18.040;2023-06-04T07:11:08;1.50;;;0.20;;
50379;SDS011;37474;59.468;18.040;2023-06-04T07:13:38;0.40;;;0.20;;
50379;SDS011;37474;59.468;18.040;2023-06-04T07:16:08;0.83;;;0.23;;
50379;SDS011;37474;59.468;18.040;2023-06-04T07:18:36;1.55;;;0.20;;
50379;SDS011;37474;59.468;18.040;2023-06-04T07:21:04;1.70;;;0.20;;
50379;SDS011;37474;59.468;18.040;2023-06-04T07:23:32;0.30;;;0.20;;
50379;SDS011;37474;59.468;18.040;2023-06-04T07:26:01;0.63;;;0.27;;
50379;SDS011;37474;59.468;18.040;2023-06-04T07:28:29;1.80;;;0.20;;
50379;SDS011;37474;59.468;18.040;2023-06-04T07:30:57;0.30;;;0.10;;
50379;SDS011;37474;59.468;18.040;2023-06-04T07:33:27;0.23;;;0.20;;
50379;SDS011;37474;59.468;18.040;2023-06-04T07:35:55;0.50;;;0.30;;
50379;SDS011;37474;59.468;18.040;2023-06-04T07:38:23;2.73;;;0.20;;
50379;SDS011;37474;59.468;18.040;2023-06-04T07:40:51;0.67;;;0.10;;
50379;SDS011;37474;59.468;18.040;2023-06-04T07:43:19;0.40;;;0.23;;
50379;SDS011;37474;59.468;18.040;2023-06-04T07:45:47;1.80;;;0.20;;
50379;SDS011;37474;59.468;18.040;2023-06-04T07:48:15;1.50;;;0.20;;
50379;SDS011;37474;59.468;18.040;2023-06-04T07:50:45;0.97;;;0.30;;
50379;SDS011;37474;59.468;18.040;2023-06-04T07:53:13;1.30;;;0.30;;
50379;SDS011;37474;59.468;18.040;2023-06-04T07:55:41;1.10;;;0.20;;
50379;SDS011;37474;59.468;18.040;2023-06-04T07:58:09;0.60;;;0.20;;
50379;SDS011;37474;59.468;18.040;2023-06-04T08:00:37;0.97;;;0.40;;
50379;SDS011;37474;59.468;18.040;2023-06-04T08:03:05;1.00;;;0.50;;
50379;SDS011;37474;59.468;18.040;2023-06-04T08:05:33;1.77;;;0.23;;
50379;SDS011;37474;59.468;18.040;2023-06-04T08:08:03;0.30;;;0.30;;
50379;SDS011;37474;59.468;18.040;2023-06-04T08:10:32;0.68;;;0.30;;
50379;SDS011;37474;59.468;18.040;2023-06-04T08:13:00;0.93;;;0.20;;
50379;SDS011;37474;59.468;18.040;2023-06-04T08:15:28;0.60;;;0.20;;
50379;SDS011;37474;59.468;18.040;2023-06-04T08:17:59;3.60;;;0.30;;
50379;SDS011;37474;59.468;18.040;2023-06-04T08:20:27;2.03;;;0.23;;
50379;SDS011;37474;59.468;18.040;2023-06-04T08:22:55;0.40;;;0.23;;
50379;SDS011;37474;59.468;18.040;2023-06-04T08:25:25;0.83;;;0.30;;
50379;SDS011;37474;59.468;18.040;2023-06-04T08:27:53;0.40;;;0.30;;
50379;SDS011;37474;59.468;18.040;2023-06-04T08:30:21;0.10;;;0.10;;
50379;SDS011;37474;59.468;18.040;2023-06-04T08:32:50;0.50;;;0.23;;
50379;SDS011;37474;59.468;18.040;2023-06-04T08:35:18;0.60;;;0.23;;
50379;SDS011;37474;59.468;18.040;2023-06-04T08:37:45;0.30;;;0.27;;
50379;SDS011;37474;59.468;18.040;2023-06-04T08:40:14;0.53;;;0.30;;
50379;SDS011;37474;59.468;18.040;2023-06-04T08:42:43;1.37;;;0.37;;
50379;SDS011;37474;59.468;18.040;2023-06-04T08:45:12;0.52;;;0.20;;
50379;SDS011;37474;59.468;18.040;2023-06-04T08:47:43;0.50;;;0.30;;
50379;SDS011;37474;59.468;18.040;2023-06-04T08:50:16;0.43;;;0.30;;
50379;SDS011;37474;59.468;18.040;2023-06-04T08:52:45;0.57;;;0.30;;
50379;SDS011;37474;59.468;18.040;2023-06-04T08:55:14;0.97;;;0.30;;
50379;SDS011;37474;59.468;18.040;2023-06-04T08:57:44;0.53;;;0.30;;
50379;SDS011;37474;59.468;18.040;2023-06-04T09:02:41;1.17;;;0.50;;
50379;SDS011;37474;59.468;18.040;2023-06-04T09:05:14;1.75;;;0.30;;
50379;SDS011;37474;59.468;18.040;2023-06-04T09:07:47;1.60;;;0.30;;
50379;SDS011;37474;59.468;18.040;2023-06-04T09:10:19;0.67;;;0.30;;
50379;SDS011;37474;59.468;18.040;2023-06-04T09:12:51;0.97;;;0.30;;
50379;SDS011;37474;59.468;18.040;2023-06-04T09:15:20;1.23;;;0.30;;
50379;SDS011;37474;59.468;18.040;2023-06-04T09:17:48;0.20;;;0.20;;
50379;SDS011;37474;59.468;18.040;2023-06-04T09:20:19;1.17;;;0.20;;
50379;SDS011;37474;59.468;18.040;2023-06-04T09:22:48;1.63;;;0.37;;
50379;SDS011;37474;59.468;18.040;2023-06-04T09:25:19;0.80;;;0.30;;
50379;SDS011;37474;59.468;18.040;2023-06-04T09:27:49;2.20;;;0.30;;
50379;SDS011;37474;59.468;18.040;2023-06-04T09:30:18;5.07;;;0.90;;
50379;SDS011;37474;59.468;18.040;2023-06-04T09:32:48;0.87;;;0.30;;
50379;SDS011;37474;59.468;18.040;2023-06-04T09:35:17;3.57;;;0.40;;
50379;SDS011;37474;59.468;18.040;2023-06-04T09:37:53;4.18;;;0.50;;
50379;SDS011;37474;59.468;18.040;2023-06-04T09:40:23;0.37;;;0.20;;
50379;SDS011;37474;59.468;18.040;2023-06-04T09:42:51;0.57;;;0.30;;
50379;SDS011;37474;59.468;18.040;2023-06-04T09:47:58;0.83;;;0.30;;
50379;SDS011;37474;59.468;18.040;2023-06-04T09:50:33;0.90;;;0.40;;
50379;SDS011;37474;59.468;18.040;2023-06-04T09:53:12;0.53;;;0.20;;
50379;SDS011;37474;59.468;18.040;2023-06-04T09:55:42;0.50;;;0.20;;
50379;SDS011;37474;59.468;18.040;2023-06-04T09:58:10;2.00;;;0.40;;
50379;SDS011;37474;59.468;18.040;2023-06-04T10:00:41;1.75;;;0.40;;
50379;SDS011;37474;59.468;18.040;2023-06-04T10:03:11;2.10;;;0.37;;
50379;SDS011;37474;59.468;18.040;2023-06-04T10:05:46;4.23;;;0.67;;
50379;SDS011;37474;59.468;18.040;2023-06-04T10:08:14;0.40;;;0.30;;
50379;SDS011;37474;59.468;18.040;2023-06-04T10:10:45;0.20;;;0.20;;
50379;SDS011;37474;59.468;18.040;2023-06-04T10:13:14;1.90;;;0.30;;
50379;SDS011;37474;59.468;18.040;2023-06-04T10:15:46;0.50;;;0.43;;
50379;SDS011;37474;59.468;18.040;2023-06-04T10:18:14;0.40;;;0.20;;
50379;SDS011;37474;59.468;18.040;2023-06-04T10:20:43;0.53;;;0.27;;
50379;SDS011;37474;59.468;18.040;2023-06-04T10:23:11;0.27;;;0.27;;
50379;SDS011;37474;59.468;18.040;2023-06-04T10:25:40;0.60;;;0.20;;
50379;SDS011;37474;59.468;18.040;2023-06-04T10:28:11;2.33;;;0.40;;
50379;SDS011;37474;59.468;18.040;2023-06-04T10:30:39;0.77;;;0.40;;
50379;SDS011;37474;59.468;18.040;2023-06-04T10:33:09;0.33;;;0.20;;
50379;SDS011;37474;59.468;18.040;2023-06-04T10:38:07;2.10;;;0.30;;
50379;SDS011;37474;59.468;18.040;2023-06-04T10:40:37;2.03;;;0.60;;
50379;SDS011;37474;59.468;18.040;2023-06-04T10:43:05;0.60;;;0.40;;
50379;SDS011;37474;59.468;18.040;2023-06-04T10:45:34;0.53;;;0.20;;
50379;SDS011;37474;59.468;18.040;2023-06-04T10:48:02;2.10;;;0.40;;
50379;SDS011;37474;59.468;18.040;2023-06-04T10:50:34;1.00;;;0.47;;
50379;SDS011;37474;59.468;18.040;2023-06-04T10:53:14;0.70;;;0.40;;
50379;SDS011;37474;59.468;18.040;2023-06-04T10:55:43;1.23;;;0.40;;
50379;SDS011;37474;59.468;18.040;2023-06-04T10:58:12;0.30;;;0.30;;
50379;SDS011;37474;59.468;18.040;2023-06-04T11:00:44;1.33;;;0.20;;
50379;SDS011;37474;59.468;18.040;2023-06-04T11:03:15;0.77;;;0.37;;
50379;SDS011;37474;59.468;18.040;2023-06-04T11:05:46;1.43;;;0.40;;
50379;SDS011;37474;59.468;18.040;2023-06-04T11:08:25;3.10;;;0.50;;
50379;SDS011;37474;59.468;18.040;2023-06-04T11:10:55;0.90;;;0.40;;
50379;SDS011;37474;59.468;18.040;2023-06-04T11:13:24;0.77;;;0.20;;
50379;SDS011;37474;59.468;18.040;2023-06-04T11:15:52;1.10;;;0.30;;
50379;SDS011;37474;59.468;18.040;2023-06-04T11:18:21;0.60;;;0.30;;
50379;SDS011;37474;59.468;18.040;2023-06-04T11:20:58;0.30;;;0.20;;
50379;SDS011;37474;59.468;18.040;2023-06-04T11:23:27;1.37;;;0.37;;
50379;SDS011;37474;59.468;18.040;2023-06-04T11:25:55;1.37;;;0.43;;
50379;SDS011;37474;59.468;18.040;2023-06-04T11:28:24;0.40;;;0.30;;
50379;SDS011;37474;59.468;18.040;2023-06-04T11:30:57;0.40;;;0.40;;
50379;SDS011;37474;59.468;18.040;2023-06-04T11:33:26;0.57;;;0.30;;
50379;SDS011;37474;59.468;18.040;2023-06-04T11:35:55;0.87;;;0.30;;
50379;SDS011;37474;59.468;18.040;2023-06-04T11:38:23;0.47;;;0.40;;
50379;SDS011;37474;59.468;18.040;2023-06-04T11:40:55;1.53;;;0.40;;
50379;SDS011;37474;59.468;18.040;2023-06-04T11:43:25;0.65;;;0.30;;
50379;SDS011;37474;59.468;18.040;2023-06-04T11:45:53;0.98;;;0.30;;
50379;SDS011;37474;59.468;18.040;2023-06-04T11:48:21;0.88;;;0.30;;
50379;SDS011;37474;59.468;18.040;2023-06-04T11:50:51;1.08;;;0.20;;
50379;SDS011;37474;59.468;18.040;2023-06-04T11:53:22;0.40;;;0.40;;
50379;SDS011;37474;59.468;18.040;2023-06-04T11:55:50;0.40;;;0.30;;
50379;SDS011;37474;59.468;18.040;2023-06-04T11:58:21;0.30;;;0.30;;
50379;SDS011;37474;59.468;18.040;2023-06-04T12:00:49;1.55;;;0.20;;
50379;SDS011;37474;59.468;18.040;2023-06-04T12:03:17;0.30;;;0.20;;
50379;SDS011;37474;59.468;18.040;2023-06-04T12:05:45;2.35;;;0.20;;
50379;SDS011;37474;59.468;18.040;2023-06-04T12:08:13;0.45;;;0.30;;
50379;SDS011;37474;59.468;18.040;2023-06-04T12:10:43;0.80;;;0.30;;
50379;SDS011;37474;59.468;18.040;2023-06-04T12:13:11;1.17;;;0.38;;
50379;SDS011;37474;59.468;18.040;2023-06-04T12:15:39;0.80;;;0.40;;
50379;SDS011;37474;59.468;18.040;2023-06-04T12:18:08;0.90;;;0.43;;
50379;SDS011;37474;59.468;18.040;2023-06-04T12:20:37;0.40;;;0.30;;
50379;SDS011;37474;59.468;18.040;2023-06-04T12:23:06;0.50;;;0.23;;
50379;SDS011;37474;59.468;18.040;2023-06-04T12:25:34;1.02;;;0.90;;
50379;SDS011;37474;59.468;18.040;2023-06-04T12:28:05;1.60;;;0.28;;
50379;SDS011;37474;59.468;18.040;2023-06-04T12:30:44;1.67;;;0.32;;
50379;SDS011;37474;59.468;18.040;2023-06-04T12:33:12;3.78;;;0.50;;
50379;SDS011;37474;59.468;18.040;2023-06-04T12:35:40;1.80;;;0.35;;
50379;SDS011;37474;59.468;18.040;2023-06-04T12:38:09;0.98;;;0.50;;
50379;SDS011;37474;59.468;18.040;2023-06-04T12:40:37;1.88;;;0.38;;
50379;SDS011;37474;59.468;18.040;2023-06-04T12:43:08;0.40;;;0.30;;
50379;SDS011;37474;59.468;18.040;2023-06-04T12:45:37;10.88;;;0.40;;
50379;SDS011;37474;59.468;18.040;2023-06-04T12:48:05;0.68;;;0.20;;
50379;SDS011;37474;59.468;18.040;2023-06-04T12:50:33;0.28;;;0.22;;
50379;SDS011;37474;59.468;18.040;2023-06-04T12:53:02;1.42;;;0.30;;
50379;SDS011;37474;59.468;18.040;2023-06-04T12:55:30;3.50;;;0.40;;
50379;SDS011;37474;59.468;18.040;2023-06-04T12:57:58;0.68;;;0.20;;
50379;SDS011;37474;59.468;18.040;2023-06-04T13:00:35;0.77;;;0.20;;
50379;SDS011;37474;59.468;18.040;2023-06-04T13:03:03;0.32;;;0.20;;
50379;SDS011;37474;59.468;18.040;2023-06-04T13:05:32;0.50;;;0.30;;
50379;SDS011;37474;59.468;18.040;2023-06-04T13:08:00;0.30;;;0.30;;
50379;SDS011;37474;59.468;18.040;2023-06-04T13:10:28;0.95;;;0.35;;
50379;SDS011;37474;59.468;18.040;2023-06-04T13:12:56;0.30;;;0.30;;
50379;SDS011;37474;59.468;18.040;2023-06-04T13:15:24;0.73;;;0.30;;
50379;SDS011;37474;59.468;18.040;2023-06-04T13:17:54;1.98;;;0.32;;
50379;SDS011;37474;59.468;18.040;2023-06-04T13:20:26;0.30;;;0.20;;
50379;SDS011;37474;59.468;18.040;2023-06-04T13:22:54;0.47;;;0.35;;
50379;SDS011;37474;59.468;18.040;2023-06-04T13:25:22;0.35;;;0.20;;
50379;SDS011;37474;59.468;18.040;2023-06-04T13:27:50;0.40;;;0.30;;
50379;SDS011;37474;59.468;18.040;2023-06-04T13:30:18;0.98;;;0.30;;
50379;SDS011;37474;59.468;18.040;2023-06-04T13:32:47;0.50;;;0.30;;
50379;SDS011;37474;59.468;18.040;2023-06-04T13:35:16;2.30;;;0.35;;
50379;SDS011;37474;59.468;18.040;2023-06-04T13:37:44;1.55;;;0.38;;
50379;SDS011;37474;59.468;18.040;2023-06-04T13:40:13;2.40;;;0.30;;
50379;SDS011;37474;59.468;18.040;2023-06-04T13:42:41;0.40;;;0.30;;
50379;SDS011;37474;59.468;18.040;2023-06-04T13:45:10;0.45;;;0.30;;
50379;SDS011;37474;59.468;18.040;2023-06-04T13:47:38;0.98;;;0.40;;
50379;SDS011;37474;59.468;18.040;2023-06-04T13:50:06;0.55;;;0.30;;
50379;SDS011;37474;59.468;18.040;2023-06-04T13:52:36;2.08;;;0.40;;
50379;SDS011;37474;59.468;18.040;2023-06-04T13:55:04;0.30;;;0.30;;
50379;SDS011;37474;59.468;18.040;2023-06-04T13:57:33;0.45;;;0.30;;
50379;SDS011;37474;59.468;18.040;2023-06-04T14:00:02;1.73;;;0.38;;
50379;SDS011;37474;59.468;18.040;2023-06-04T14:02:32;3.45;;;0.40;;
50379;SDS011;37474;59.468;18.040;2023-06-04T14:05:04;1.23;;;0.40;;
50379;SDS011;37474;59.468;18.040;2023-06-04T14:07:32;1.80;;;0.47;;
50379;SDS011;37474;59.468;18.040;2023-06-04T14:10:02;1.88;;;0.30;;
50379;SDS011;37474;59.468;18.040;2023-06-04T14:12:31;1.00;;;0.30;;
50379;SDS011;37474;59.468;18.040;2023-06-04T14:14:59;0.40;;;0.22;;
50379;SDS011;37474;59.468;18.040;2023-06-04T14:17:27;1.15;;;0.30;;
50379;SDS011;37474;59.468;18.040;2023-06-04T14:19:57;0.73;;;0.30;;
50379;SDS011;37474;59.468;18.040;2023-06-04T14:22:25;0.80;;;0.30;;
50379;SDS011;37474;59.468;18.040;2023-06-04T14:24:53;1.70;;;0.30;;
50379;SDS011;37474;59.468;18.040;2023-06-04T14:27:23;0.17;;;0.17;;
50379;SDS011;37474;59.468;18.040;2023-06-04T14:29:51;1.05;;;0.32;;
50379;SDS011;37474;59.468;18.040;2023-06-04T14:32:19;2.05;;;0.40;;
50379;SDS011;37474;59.468;18.040;2023-06-04T14:34:47;0.32;;;0.22;;
50379;SDS011;37474;59.468;18.040;2023-06-04T14:37:15;0.40;;;0.30;;
50379;SDS011;37474;59.468;18.040;2023-06-04T14:39:43;1.58;;;0.40;;
50379;SDS011;37474;59.468;18.040;2023-06-04T14:42:12;1.38;;;0.40;;
50379;SDS011;37474;59.468;18.040;2023-06-04T14:44:41;1.38;;;0.45;;
50379;SDS011;37474;59.468;18.040;2023-06-04T14:47:10;0.83;;;0.60;;
50379;SDS011;37474;59.468;18.040;2023-06-04T14:49:38;1.25;;;0.30;;
50379;SDS011;37474;59.468;18.040;2023-06-04T14:52:06;0.65;;;0.20;;
50379;SDS011;37474;59.468;18.040;2023-06-04T14:54:35;0.47;;;0.28;;
50379;SDS011;37474;59.468;18.040;2023-06-04T14:57:03;1.33;;;0.43;;
50379;SDS011;37474;59.468;18.040;2023-06-04T14:59:32;0.70;;;0.40;;
50379;SDS011;37474;59.468;18.040;2023-06-04T15:02:05;0.55;;;0.50;;